createdAt,value
2019-04-21T00:00:58.582Z,53.48
2019-04-21T00:03:33.421Z,56.80
2019-04-21T00:06:18.655Z,56.92
2019-04-21T00:08:52.502Z,55.30
2019-04-21T00:11:22.407Z,57.03
2019-04-21T00:13:49.606Z,53.08
2019-04-21T00:16:10.845Z,54.23
2019-04-21T00:19:09.099Z,56.15
2019-04-21T00:21:40.480Z,54.42
2019-04-21T00:24:23.847Z,54.77
2019-04-21T00:27:05.605Z,54.85
2019-04-21T00:29:38.176Z,53.52
2019-04-21T00:32:06.752Z,54.60
2019-04-21T00:34:23.930Z,53.50
2019-04-21T00:37:07.038Z,52.40
2019-04-21T00:39:58.241Z,52.80
2019-04-21T00:42:21.630Z,52.85
2019-04-21T00:44:44.372Z,54.85
2019-04-21T00:47:26.733Z,54.70
2019-04-21T00:50:00.778Z,56.48
2019-04-21T00:55:38.618Z,54.53
2019-04-21T00:58:10.947Z,54.18
2019-04-21T01:00:38.529Z,54.08
2019-04-21T01:03:17.139Z,55.60
2019-04-21T01:05:48.342Z,54.90
2019-04-21T01:08:17.666Z,56.90
2019-04-21T01:10:43.324Z,57.00
2019-04-21T01:13:27.659Z,56.63
2019-04-21T01:15:59.769Z,56.08
2019-04-21T01:18:27.655Z,57.30
2019-04-21T01:20:41.684Z,55.03
2019-04-21T01:23:12.730Z,55.65
2019-04-21T01:25:55.455Z,54.18
2019-04-21T01:28:36.211Z,56.53
2019-04-21T01:31:11.003Z,55.90
2019-04-21T01:33:47.931Z,56.25
2019-04-21T01:36:12.878Z,55.40
2019-04-21T01:38:48.479Z,56.25
2019-04-21T01:41:21.379Z,55.80
2019-04-21T01:43:53.503Z,55.00
2019-04-21T01:46:22.504Z,57.08
2019-04-21T01:48:49.281Z,56.20
2019-04-21T01:51:28.129Z,55.98
2019-04-21T01:54:14.869Z,56.58
2019-04-21T01:56:52.359Z,56.08
2019-04-21T01:59:18.423Z,54.33
2019-04-21T02:02:05.225Z,55.45
2019-04-21T02:04:41.354Z,52.43
2019-04-21T02:07:11.542Z,54.80
2019-04-21T02:09:43.327Z,55.55
2019-04-21T02:12:17.263Z,57.50
2019-04-21T02:14:51.552Z,55.65
2019-04-21T02:17:20.424Z,55.80
2019-04-21T02:19:48.005Z,55.67
2019-04-21T02:22:28.744Z,54.20
2019-04-21T02:25:02.926Z,55.17
2019-04-21T02:27:31.084Z,54.95
2019-04-21T02:30:10.249Z,55.48
2019-04-21T02:32:43.447Z,55.10
2019-04-21T02:35:25.509Z,56.25
2019-04-21T02:37:54.331Z,57.60
2019-04-21T02:40:25.558Z,53.45
2019-04-21T02:43:00.253Z,54.25
2019-04-21T02:45:23.467Z,53.30
2019-04-21T02:50:31.500Z,54.83
2019-04-21T02:53:01.400Z,54.80
2019-04-21T02:55:28.926Z,53.28
2019-04-21T02:58:28.742Z,53.98
2019-04-21T03:01:04.640Z,55.48
2019-04-21T03:03:55.035Z,60.67
2019-04-21T03:09:18.229Z,62.53
2019-04-21T03:11:56.057Z,63.58
2019-04-21T03:14:31.188Z,67.85
2019-04-21T03:16:52.481Z,65.57
2019-04-21T03:19:39.823Z,63.75
2019-04-21T03:22:05.251Z,66.55
2019-04-21T03:24:54.115Z,64.40
2019-04-21T03:37:33.448Z,63.95
2019-04-21T03:39:54.581Z,66.37
2019-04-21T03:42:31.071Z,66.40
2019-04-21T03:47:32.708Z,65.92
2019-04-21T03:50:08.782Z,66.82
2019-04-21T03:55:53.189Z,63.58
2019-04-21T03:58:24.295Z,62.80
2019-04-21T04:01:04.910Z,62.90
2019-04-21T04:04:05.426Z,64.47
2019-04-21T04:06:43.020Z,63.00
2019-04-21T04:09:45.130Z,61.75
2019-04-21T04:11:56.468Z,62.55
2019-04-21T04:14:40.187Z,57.53
2019-04-21T04:17:23.982Z,58.58
2019-04-21T04:19:40.093Z,50.70
2019-04-21T04:22:15.171Z,48.05
2019-04-21T04:27:33.667Z,43.52
2019-04-21T04:32:57.484Z,40.15
2019-04-21T04:35:22.320Z,37.03
2019-04-21T04:40:43.011Z,33.00
2019-04-21T04:48:32.787Z,30.05
2019-04-21T04:56:28.863Z,30.62
2019-04-21T05:04:06.371Z,32.33
2019-04-21T05:06:59.935Z,33.15
2019-04-21T05:19:20.980Z,28.07
2019-04-21T05:22:04.965Z,27.90
2019-04-21T05:24:25.652Z,27.95
2019-04-21T05:26:49.405Z,28.57
2019-04-21T05:29:29.692Z,31.95
2019-04-21T05:32:36.159Z,30.92
2019-04-21T05:35:08.045Z,31.40
2019-04-21T05:37:59.911Z,28.95
2019-04-21T05:40:26.445Z,27.70
2019-04-21T05:43:06.247Z,26.95
2019-04-21T05:45:44.119Z,27.42
2019-04-21T05:48:35.115Z,26.93
2019-04-21T05:51:03.644Z,27.90
2019-04-21T05:53:36.215Z,30.20
2019-04-21T05:56:09.913Z,30.70
2019-04-21T05:58:43.587Z,29.02
2019-04-21T06:01:23.879Z,30.55
2019-04-21T06:03:52.387Z,31.27
2019-04-21T06:06:26.182Z,32.08
2019-04-21T06:08:53.884Z,32.95
2019-04-21T06:11:32.059Z,31.27
2019-04-21T06:14:01.530Z,32.20
2019-04-21T06:16:40.740Z,34.83
2019-04-21T06:19:04.945Z,38.23
2019-04-21T06:21:36.152Z,39.05
2019-04-21T06:24:13.414Z,39.38
2019-04-21T06:26:53.803Z,38.60
2019-04-21T06:29:14.872Z,37.65
2019-04-21T06:32:14.206Z,37.80
2019-04-21T06:34:24.963Z,35.48
2019-04-21T06:37:34.865Z,35.33
2019-04-21T06:40:03.299Z,37.85
2019-04-21T06:42:18.574Z,36.80
2019-04-21T06:47:29.948Z,39.48
2019-04-21T06:49:55.573Z,37.13
2019-04-21T06:52:46.604Z,35.98
2019-04-21T06:57:45.715Z,36.50
2019-04-21T07:00:11.756Z,37.28
2019-04-21T07:02:54.917Z,36.10
2019-04-21T07:05:34.616Z,33.28
2019-04-21T07:08:14.911Z,34.67
2019-04-21T07:10:31.804Z,35.45
2019-04-21T07:13:03.638Z,34.23
2019-04-21T07:16:00.575Z,34.88
2019-04-21T07:18:12.437Z,34.58
2019-04-21T07:20:42.327Z,34.18
2019-04-21T07:23:15.619Z,34.55
2019-04-21T07:25:52.910Z,34.40
2019-04-21T07:28:28.499Z,32.53
2019-04-21T07:31:00.603Z,30.10
2019-04-21T07:33:49.297Z,32.70
2019-04-21T07:35:59.642Z,33.08
2019-04-21T07:38:30.793Z,29.92
2019-04-21T07:40:58.771Z,31.77
2019-04-21T07:43:30.199Z,32.23
2019-04-21T07:46:03.615Z,32.67
2019-04-21T07:48:43.224Z,30.32
2019-04-21T07:51:47.967Z,28.52
2019-04-21T07:54:16.990Z,29.80
2019-04-21T07:56:33.178Z,27.73
2019-04-21T07:59:23.877Z,26.02
2019-04-21T08:01:50.046Z,27.25
2019-04-21T08:04:42.337Z,25.05
2019-04-21T08:07:14.401Z,24.52
2019-04-21T08:09:29.535Z,23.83
2019-04-21T08:12:00.338Z,24.67
2019-04-21T08:14:35.672Z,22.37
2019-04-21T08:17:04.962Z,22.60
2019-04-21T08:19:38.326Z,21.77
2019-04-21T08:22:12.079Z,20.90
2019-04-21T08:24:47.418Z,22.42
2019-04-21T08:27:23.080Z,21.75
2019-04-21T08:29:46.235Z,22.87
2019-04-21T08:32:27.261Z,22.32
2019-04-21T08:35:08.490Z,21.60
2019-04-21T08:37:26.142Z,23.95
2019-04-21T08:40:05.118Z,21.15
2019-04-21T08:42:25.660Z,22.02
2019-04-21T08:45:06.006Z,22.60
2019-04-21T08:47:34.072Z,21.05
2019-04-21T08:50:00.427Z,21.45
2019-04-21T08:55:19.406Z,21.05
2019-04-21T08:58:08.367Z,21.82
2019-04-21T09:00:46.799Z,22.73
2019-04-21T09:03:35.801Z,23.92
2019-04-21T09:06:09.283Z,24.00
2019-04-21T09:08:39.280Z,22.27
2019-04-21T09:11:07.011Z,22.27
2019-04-21T09:13:44.582Z,21.55
2019-04-21T09:16:09.473Z,22.65
2019-04-21T09:18:41.548Z,22.17
2019-04-21T09:21:19.404Z,22.05
2019-04-21T09:23:52.306Z,19.77
2019-04-21T09:26:25.307Z,21.68
2019-04-21T09:28:48.181Z,19.12
2019-04-21T09:31:08.982Z,19.48
2019-04-21T09:33:47.145Z,17.07
2019-04-21T09:36:18.121Z,17.07
2019-04-21T09:38:50.820Z,16.93
2019-04-21T09:41:20.873Z,14.90
2019-04-21T09:43:52.720Z,11.85
2019-04-21T09:46:23.127Z,9.45
2019-04-21T09:49:01.796Z,9.45
2019-04-21T09:51:26.035Z,20.27
2019-04-21T09:54:04.326Z,20.65
2019-04-21T09:56:39.526Z,24.32
2019-04-21T09:59:10.156Z,24.82
2019-04-21T10:01:50.396Z,25.55
2019-04-21T10:04:07.693Z,25.70
2019-04-21T10:06:39.213Z,25.77
2019-04-21T10:09:14.190Z,24.92
2019-04-21T10:11:43.745Z,24.32
2019-04-21T10:14:14.613Z,25.43
2019-04-21T10:17:06.859Z,25.37
2019-04-21T10:19:37.479Z,25.05
2019-04-21T10:22:08.463Z,23.62
2019-04-21T10:24:40.567Z,22.05
2019-04-21T10:27:13.303Z,22.27
2019-04-21T10:29:44.967Z,21.93
2019-04-21T10:32:18.151Z,19.77
2019-04-21T10:34:49.461Z,22.82
2019-04-21T10:37:20.868Z,22.02
2019-04-21T10:39:53.723Z,21.87
2019-04-21T10:42:25.505Z,20.23
2019-04-21T10:44:56.856Z,22.27
2019-04-21T10:47:27.506Z,18.00
2019-04-21T10:49:58.346Z,9.13
2019-04-21T10:52:46.949Z,7.05
2019-04-21T10:55:37.998Z,6.55
2019-04-21T10:58:08.792Z,6.95
2019-04-21T11:00:40.327Z,6.50
2019-04-21T11:03:29.055Z,6.42
2019-04-21T11:06:01.058Z,6.10
2019-04-21T11:08:37.431Z,5.72
2019-04-21T11:11:05.753Z,5.90
2019-04-21T11:13:36.917Z,6.15
2019-04-21T11:16:08.853Z,6.25
2019-04-21T11:18:39.896Z,6.42
2019-04-21T11:21:11.090Z,6.22
2019-04-21T11:23:41.946Z,7.10
2019-04-21T11:26:14.151Z,6.22
2019-04-21T11:28:45.285Z,6.58
2019-04-21T11:31:16.404Z,6.47
2019-04-21T11:33:47.248Z,6.47
2019-04-21T11:36:19.374Z,6.00
2019-04-21T11:39:21.079Z,6.12
2019-04-21T11:41:41.615Z,6.53
2019-04-21T11:44:12.468Z,6.40
2019-04-21T11:46:43.031Z,6.67
2019-04-21T11:49:15.850Z,7.22
2019-04-21T11:51:46.954Z,7.10
2019-04-21T11:54:17.624Z,7.10
2019-04-21T11:56:48.554Z,7.12
2019-04-21T11:59:19.738Z,7.37
2019-04-21T12:01:51.725Z,7.60
2019-04-21T12:04:23.426Z,7.35
2019-04-21T12:06:55.849Z,7.35
2019-04-21T12:09:27.315Z,7.00
2019-04-21T12:11:59.115Z,7.30
2019-04-21T12:14:30.241Z,7.00
2019-04-21T12:17:01.130Z,7.05
2019-04-21T12:19:34.739Z,6.83
2019-04-21T12:22:14.475Z,6.67
2019-04-21T12:24:39.641Z,6.55
2019-04-21T12:27:11.924Z,6.70
2019-04-21T12:29:44.066Z,6.28
2019-04-21T12:34:55.952Z,6.70
2019-04-21T12:37:26.891Z,6.97
2019-04-21T12:39:58.874Z,7.33
2019-04-21T12:42:30.313Z,6.85
2019-04-21T12:45:01.594Z,6.50
2019-04-21T12:47:32.568Z,6.85
2019-04-21T12:50:04.517Z,7.37
2019-04-21T12:52:35.747Z,7.35
2019-04-21T12:55:07.572Z,7.20
2019-04-21T12:57:39.225Z,6.70
2019-04-21T13:00:13.171Z,7.60
2019-04-21T13:02:43.833Z,9.43
2019-04-21T13:05:15.716Z,8.23
2019-04-21T13:07:46.856Z,7.37
2019-04-21T13:10:18.305Z,7.80
2019-04-21T13:12:50.072Z,8.23
2019-04-21T13:15:21.864Z,7.87
2019-04-21T13:17:54.126Z,7.80
2019-04-21T13:20:25.414Z,7.12
2019-04-21T13:22:57.708Z,7.80
2019-04-21T13:25:29.694Z,7.53
2019-04-21T13:28:00.920Z,7.62
2019-04-21T13:30:32.649Z,8.18
2019-04-21T13:33:03.373Z,8.03
2019-04-21T13:35:35.215Z,8.10
2019-04-21T13:38:18.612Z,8.30
2019-04-21T13:41:23.176Z,8.63
2019-04-21T13:43:39.433Z,9.25
2019-04-21T13:46:10.168Z,9.33
2019-04-21T13:48:42.399Z,9.20
2019-04-21T13:51:13.576Z,9.60
2019-04-21T13:53:45.859Z,9.23
2019-04-21T13:56:18.356Z,8.73
2019-04-21T13:58:50.397Z,8.63
2019-04-21T14:01:21.501Z,8.70
2019-04-21T14:03:53.550Z,8.85
2019-04-21T14:06:24.647Z,9.40
2019-04-21T14:08:55.293Z,8.93
2019-04-21T14:11:27.149Z,8.78
2019-04-21T14:14:16.835Z,9.33
2019-04-21T14:16:47.987Z,9.55
2019-04-21T14:19:19.763Z,9.73
2019-04-21T14:21:52.953Z,9.95
2019-04-21T14:24:22.649Z,9.33
2019-04-21T14:26:54.301Z,9.73
2019-04-21T14:29:25.713Z,9.73
2019-04-21T14:31:58.085Z,9.05
2019-04-21T14:34:30.178Z,8.73
2019-04-21T14:37:02.560Z,8.78
2019-04-21T14:39:34.363Z,8.10
2019-04-21T14:42:06.452Z,7.62
2019-04-21T14:44:36.960Z,7.75
2019-04-21T14:47:15.389Z,8.45
2019-04-21T14:50:20.002Z,8.18
2019-04-21T14:53:09.957Z,8.45
2019-04-21T14:55:43.480Z,8.93
2019-04-21T14:58:15.000Z,8.38
2019-04-21T15:01:10.591Z,8.98
2019-04-21T15:03:41.715Z,8.43
2019-04-21T15:06:13.466Z,8.53
2019-04-21T15:08:44.944Z,8.35
2019-04-21T15:11:16.098Z,9.03
2019-04-21T15:13:48.004Z,7.83
2019-04-21T15:16:18.765Z,8.43
2019-04-21T15:18:50.614Z,8.90
2019-04-21T15:21:21.618Z,9.88
2019-04-21T15:23:52.243Z,8.80
2019-04-21T15:26:24.148Z,8.88
2019-04-21T15:28:54.960Z,8.98
2019-04-21T15:31:30.568Z,8.98
2019-04-21T15:33:59.105Z,9.45
2019-04-21T15:36:32.174Z,9.15
2019-04-21T15:39:01.916Z,10.13
2019-04-21T15:41:34.419Z,11.38
2019-04-21T15:44:06.471Z,10.13
2019-04-21T15:46:39.938Z,9.13
2019-04-21T15:49:11.263Z,8.80
2019-04-21T15:51:42.159Z,9.40
2019-04-21T15:54:14.337Z,10.40
2019-04-21T15:56:50.846Z,9.95
2019-04-21T15:59:40.177Z,10.45
2019-04-21T16:02:28.626Z,10.30
2019-04-21T16:04:59.351Z,11.12
2019-04-21T16:07:29.936Z,9.50
2019-04-21T16:10:02.037Z,10.45
2019-04-21T16:12:33.918Z,10.72
2019-04-21T16:15:05.042Z,10.53
2019-04-21T16:17:37.377Z,10.05
2019-04-21T16:20:10.213Z,9.60
2019-04-21T16:22:42.227Z,10.15
2019-04-21T16:25:14.833Z,9.90
2019-04-21T16:27:45.586Z,10.00
2019-04-21T16:30:17.902Z,9.90
2019-04-21T16:32:48.494Z,10.13
2019-04-21T16:35:21.749Z,10.58
2019-04-21T16:37:54.385Z,12.20
2019-04-21T16:40:25.444Z,11.00
2019-04-21T16:42:56.348Z,11.30
2019-04-21T16:45:28.531Z,11.63
2019-04-21T16:47:59.226Z,11.22
2019-04-21T16:50:29.877Z,11.48
2019-04-21T16:53:23.894Z,11.60
2019-04-21T16:56:00.755Z,12.03
2019-04-21T16:58:41.014Z,11.88
2019-04-21T17:01:17.049Z,12.73
2019-04-21T17:03:46.499Z,13.40
2019-04-21T17:06:17.397Z,13.48
2019-04-21T17:08:48.005Z,13.48
2019-04-21T17:11:25.300Z,13.35
2019-04-21T17:13:51.929Z,15.35
2019-04-21T17:19:05.184Z,15.80
2019-04-21T17:21:28.125Z,14.45
2019-04-21T17:23:59.020Z,16.42
2019-04-21T17:26:31.043Z,16.55
2019-04-21T17:29:02.700Z,17.27
2019-04-21T17:31:34.122Z,15.13
2019-04-21T17:34:10.371Z,12.70
2019-04-21T17:36:39.142Z,14.63
2019-04-21T17:39:11.168Z,15.40
2019-04-21T17:41:56.283Z,18.40
2019-04-21T17:44:15.111Z,17.60
2019-04-21T17:46:54.492Z,15.70
2019-04-21T17:49:19.059Z,14.33
2019-04-21T17:52:13.331Z,13.65
2019-04-21T17:54:50.397Z,13.43
2019-04-21T17:57:39.288Z,12.73
2019-04-21T18:00:14.106Z,13.70
2019-04-21T18:02:43.375Z,12.88
2019-04-21T18:05:16.629Z,14.15
2019-04-21T18:07:47.837Z,13.80
2019-04-21T18:10:17.070Z,15.98
2019-04-21T18:12:43.654Z,15.25
2019-04-21T18:15:21.616Z,14.58
2019-04-21T18:17:38.630Z,15.35
2019-04-21T18:20:12.180Z,14.05
2019-04-21T18:22:53.205Z,15.68
2019-04-21T18:25:37.598Z,14.93
2019-04-21T18:27:58.654Z,15.25
2019-04-21T18:30:46.805Z,14.25
2019-04-21T18:33:26.612Z,15.05
2019-04-21T18:36:34.067Z,14.83
2019-04-21T18:39:49.762Z,16.23
2019-04-21T18:42:39.480Z,14.20
2019-04-21T18:45:40.291Z,15.03
2019-04-21T18:51:06.258Z,14.60
2019-04-21T18:54:22.704Z,14.55
2019-04-21T18:56:31.691Z,15.10
2019-04-21T18:59:02.916Z,14.65
2019-04-21T19:01:36.517Z,14.33
2019-04-21T19:04:17.097Z,14.53
2019-04-21T19:06:54.393Z,14.38
2019-04-21T19:09:35.607Z,13.70
2019-04-21T19:11:59.619Z,13.68
2019-04-21T19:14:36.390Z,15.38
2019-04-21T19:17:33.879Z,14.93
2019-04-21T19:22:10.442Z,15.95
2019-04-21T19:24:51.051Z,16.67
2019-04-21T19:27:18.870Z,15.13
2019-04-21T19:30:04.211Z,16.95
2019-04-21T19:32:33.189Z,19.30
2019-04-21T19:34:40.741Z,24.15
2019-04-21T19:37:13.385Z,24.80
2019-04-21T19:39:56.118Z,27.58
2019-04-21T19:42:25.533Z,26.48
2019-04-21T19:45:00.470Z,28.75
2019-04-21T19:47:42.270Z,27.82
2019-04-21T19:50:12.758Z,28.47
2019-04-21T19:52:34.060Z,25.43
2019-04-21T19:54:56.192Z,25.32
2019-04-21T19:57:27.240Z,26.17
2019-04-21T20:00:02.754Z,23.18
2019-04-21T20:02:30.331Z,24.00
2019-04-21T20:05:06.977Z,24.95
2019-04-21T20:07:49.575Z,19.52
2019-04-21T20:10:26.975Z,18.98
2019-04-21T20:13:03.795Z,19.90
2019-04-21T20:15:36.087Z,17.52
2019-04-21T20:17:58.576Z,17.20
2019-04-21T20:20:19.368Z,17.90
2019-04-21T20:22:51.969Z,17.82
2019-04-21T20:25:23.694Z,17.32
2019-04-21T20:28:01.322Z,16.73
2019-04-21T20:30:42.466Z,16.50
2019-04-21T20:38:17.632Z,16.87
2019-04-21T20:40:45.806Z,16.00
2019-04-21T20:43:32.120Z,16.32
2019-04-21T20:46:02.484Z,15.98
2019-04-21T20:48:23.776Z,15.83
2019-04-21T20:51:08.704Z,16.17
2019-04-21T20:53:39.028Z,15.98
2019-04-21T20:56:02.299Z,15.93
2019-04-21T20:58:41.143Z,15.88
2019-04-21T21:01:28.133Z,16.52
2019-04-21T21:03:43.231Z,17.00
2019-04-21T21:06:18.672Z,17.98
2019-04-21T21:08:51.047Z,17.10
2019-04-21T21:11:24.538Z,17.60
2019-04-21T21:14:03.530Z,18.30
2019-04-21T21:16:36.841Z,18.50
2019-04-21T21:19:15.260Z,18.92
2019-04-21T21:21:30.061Z,18.77
2019-04-21T21:24:06.832Z,17.92
2019-04-21T21:26:38.214Z,17.65
2019-04-21T21:29:03.620Z,17.42
2019-04-21T21:31:49.089Z,17.55
2019-04-21T21:34:24.285Z,18.82
2019-04-21T21:36:50.627Z,18.02
2019-04-21T21:39:23.373Z,19.48
2019-04-21T21:41:46.375Z,17.20
2019-04-21T21:44:16.153Z,18.50
2019-04-21T21:46:55.347Z,18.20
2019-04-21T21:49:36.953Z,18.95
2019-04-21T21:51:59.135Z,18.02
2019-04-21T21:54:22.121Z,18.90
2019-04-21T21:56:52.826Z,18.12
2019-04-21T21:59:29.261Z,17.82
2019-04-21T22:01:59.755Z,18.60
2019-04-21T22:04:33.632Z,18.70
2019-04-21T22:07:09.222Z,18.02
2019-04-21T22:09:34.930Z,17.07
2019-04-21T22:12:07.226Z,17.50
2019-04-21T22:14:43.529Z,17.30
2019-04-21T22:17:25.531Z,17.12
2019-04-21T22:20:03.662Z,16.17
2019-04-21T22:22:28.549Z,16.75
2019-04-21T22:25:00.749Z,15.90
2019-04-21T22:27:19.414Z,16.32
2019-04-21T22:29:53.503Z,15.90
2019-04-21T22:32:27.515Z,16.57
2019-04-21T22:35:00.131Z,16.17
2019-04-21T22:37:41.334Z,16.77
2019-04-21T22:40:12.647Z,17.40
2019-04-21T22:42:40.177Z,16.87
2019-04-21T22:45:07.300Z,17.00
2019-04-21T22:47:39.919Z,16.90
2019-04-21T22:50:18.632Z,16.27
2019-04-21T22:52:53.378Z,16.67
2019-04-21T22:55:25.286Z,16.23
2019-04-21T22:57:56.955Z,17.15
2019-04-21T23:00:32.257Z,16.50
2019-04-21T23:03:03.819Z,16.65
2019-04-21T23:05:36.921Z,16.73
2019-04-21T23:08:07.025Z,16.67
2019-04-21T23:10:37.146Z,16.25
2019-04-21T23:13:13.113Z,17.12
2019-04-21T23:15:46.155Z,16.73
2019-04-21T23:18:30.807Z,16.25
2019-04-21T23:21:03.513Z,16.40
2019-04-21T23:23:43.082Z,15.88
2019-04-21T23:26:11.296Z,16.73
2019-04-21T23:28:45.629Z,16.00
2019-04-21T23:31:16.688Z,16.02
2019-04-21T23:33:27.547Z,15.90
2019-04-21T23:36:07.643Z,15.18
2019-04-21T23:38:38.760Z,15.32
2019-04-21T23:41:07.029Z,15.38
2019-04-21T23:43:37.198Z,15.20
2019-04-21T23:46:18.899Z,15.05
2019-04-21T23:48:57.911Z,15.90
2019-04-21T23:51:27.544Z,14.93
2019-04-21T23:53:47.228Z,15.10
2019-04-21T23:56:21.751Z,14.38
2019-04-21T23:58:56.434Z,12.88
